CheckWX is a tool to help pilots better visualize weather data.  It is not intended as a substitute for an official pre-flight weather briefing.

04:44:23 UTC

LFRL TAF
Lanvéoc-Poulmic Air Base Airport
Lanvéoc/Poulmic, France
TAF AMD LFRL 221904Z 2219/2312 VRB03KT 9999 FEW025 TEMPO 2219/2309 3000 BR BKN005 PROB40 2303/2308 0500 FG VV///

Mar-22@
19:00 UTC

Mar-22 @ 19:00 UTC

Mar-23@
12:00 UTC

Mar-23 @ 12:00 UTC

TAF AMD LFRL 221904Z 2219/2312 VRB03KT 9999 FEW025
Wind
  • Variable at 3 KTS
Cloud Levels
  • Few at 2,500' AGL

Mar-22@
19:00 UTC

Mar-22 @ 19:00 UTC

Mar-23@
09:00 UTC

Mar-23 @ 09:00 UTC

TEMPO 2219/2309 3000 BR BKN005

Temporary

Temporary Changes expected for less than half the time period

Conditions
Mist
Cloud Levels
  • Broken at 500' AGL

Mar-23@
03:00 UTC

Mar-23 @ 03:00 UTC

Mar-23@
08:00 UTC

Mar-23 @ 08:00 UTC

PROB40 2303/2308 0500 FG VV///

Probable - 40% Likelihood

Probable - 40% Likelihood during this time.

Conditions
Fog